Terminal Aerodrome Forecast
Issued by NWS King Salmon, AK

Home | Current Version | Previous Version | Text Only | Print | Product List | Glossary On
Versions: 1 2 3 4 5 6 7 8 9 10 11 12 13 14 15 16 17 18 19 20 21 22 23 24 25 26
000
FTAK31 PANC 171740
TAFAKN
TAF
PAKN 171740Z 1718/1818 11010KT P6SM -SHRA FEW025 OVC040
      TEMPO 1718/1720 5SM SHRA BKN025 OVC040
     FM180000 VRB05KT 6SM SHRA SCT030 BKN040
     FM180900 33006KT P6SM VCSH BKN030 OVC040=

USA.gov is the U.S. government's official web portal to all federal, state and local government web resources and services.